sensor_id;sensor_type;location;lat;lon;timestamp;temperature;humidity
14093;DHT22;7123;49.468;10.992;2022-11-15T00:00:56;9.40;99.90
14093;DHT22;7123;49.468;10.992;2022-11-15T00:03:25;9.40;99.90
14093;DHT22;7123;49.468;10.992;2022-11-15T00:05:52;9.40;99.90
14093;DHT22;7123;49.468;10.992;2022-11-15T00:08:19;9.40;99.90
14093;DHT22;7123;49.468;10.992;2022-11-15T00:10:54;9.40;99.90
14093;DHT22;7123;49.468;10.992;2022-11-15T00:13:22;9.40;99.90
14093;DHT22;7123;49.468;10.992;2022-11-15T00:15:48;9.40;99.90
14093;DHT22;7123;49.468;10.992;2022-11-15T00:18:16;9.40;99.90
14093;DHT22;7123;49.468;10.992;2022-11-15T00:20:43;9.40;99.90
14093;DHT22;7123;49.468;10.992;2022-11-15T00:23:10;9.30;99.90
14093;DHT22;7123;49.468;10.992;2022-11-15T00:25:37;9.40;99.90
14093;DHT22;7123;49.468;10.992;2022-11-15T00:28:03;9.30;99.90
14093;DHT22;7123;49.468;10.992;2022-11-15T00:30:30;9.30;99.90
14093;DHT22;7123;49.468;10.992;2022-11-15T00:33:04;9.40;99.90
14093;DHT22;7123;49.468;10.992;2022-11-15T00:35:32;9.20;99.90
14093;DHT22;7123;49.468;10.992;2022-11-15T00:38:00;9.20;99.90
14093;DHT22;7123;49.468;10.992;2022-11-15T00:40:27;9.20;99.90
14093;DHT22;7123;49.468;10.992;2022-11-15T00:42:53;9.20;99.90
14093;DHT22;7123;49.468;10.992;2022-11-15T00:45:20;9.20;99.90
14093;DHT22;7123;49.468;10.992;2022-11-15T00:47:47;9.20;99.90
14093;DHT22;7123;49.468;10.992;2022-11-15T00:50:14;9.20;99.90
14093;DHT22;7123;49.468;10.992;2022-11-15T00:52:41;9.20;99.90
14093;DHT22;7123;49.468;10.992;2022-11-15T00:55:14;9.10;99.90
14093;DHT22;7123;49.468;10.992;2022-11-15T00:57:41;9.10;99.90
14093;DHT22;7123;49.468;10.992;2022-11-15T01:00:08;9.10;99.90
14093;DHT22;7123;49.468;10.992;2022-11-15T01:02:35;9.10;99.90
14093;DHT22;7123;49.468;10.992;2022-11-15T01:05:02;9.10;99.90
14093;DHT22;7123;49.468;10.992;2022-11-15T01:07:29;9.10;99.90
14093;DHT22;7123;49.468;10.992;2022-11-15T01:09:56;9.10;99.90
14093;DHT22;7123;49.468;10.992;2022-11-15T01:12:22;9.10;99.90
14093;DHT22;7123;49.468;10.992;2022-11-15T01:14:49;9.10;99.90
14093;DHT22;7123;49.468;10.992;2022-11-15T01:17:16;9.10;99.90
14093;DHT22;7123;49.468;10.992;2022-11-15T01:19:43;9.00;99.90
14093;DHT22;7123;49.468;10.992;2022-11-15T01:22:09;9.00;99.90
14093;DHT22;7123;49.468;10.992;2022-11-15T01:24:36;9.00;99.90
14093;DHT22;7123;49.468;10.992;2022-11-15T01:27:03;9.00;99.90
14093;DHT22;7123;49.468;10.992;2022-11-15T01:29:29;9.00;99.90
14093;DHT22;7123;49.468;10.992;2022-11-15T01:31:56;9.00;99.90
14093;DHT22;7123;49.468;10.992;2022-11-15T01:34:23;9.00;99.90
14093;DHT22;7123;49.468;10.992;2022-11-15T01:36:49;9.00;99.90
14093;DHT22;7123;49.468;10.992;2022-11-15T01:39:16;9.00;99.90
14093;DHT22;7123;49.468;10.992;2022-11-15T01:41:43;9.00;99.90
14093;DHT22;7123;49.468;10.992;2022-11-15T01:48:09;8.90;99.90
14093;DHT22;7123;49.468;10.992;2022-11-15T01:50:21;8.90;99.90
14093;DHT22;7123;49.468;10.992;2022-11-15T01:52:48;8.90;99.90
14093;DHT22;7123;49.468;10.992;2022-11-15T01:55:24;8.90;99.90
14093;DHT22;7123;49.468;10.992;2022-11-15T01:57:55;8.90;99.90
14093;DHT22;7123;49.468;10.992;2022-11-15T02:00:23;8.80;99.90
14093;DHT22;7123;49.468;10.992;2022-11-15T02:02:50;8.80;99.90
14093;DHT22;7123;49.468;10.992;2022-11-15T02:05:17;8.80;99.90
14093;DHT22;7123;49.468;10.992;2022-11-15T02:07:44;8.80;99.90
14093;DHT22;7123;49.468;10.992;2022-11-15T02:10:17;8.80;99.90
14093;DHT22;7123;49.468;10.992;2022-11-15T02:12:45;8.80;99.90
14093;DHT22;7123;49.468;10.992;2022-11-15T02:15:12;8.80;99.90
14093;DHT22;7123;49.468;10.992;2022-11-15T02:23:21;8.80;99.90
14093;DHT22;7123;49.468;10.992;2022-11-15T02:31:31;8.90;99.90
14093;DHT22;7123;49.468;10.992;2022-11-15T02:37:07;8.90;99.90
14093;DHT22;7123;49.468;10.992;2022-11-15T02:40:01;8.90;99.90
14093;DHT22;7123;49.468;10.992;2022-11-15T02:42:45;8.90;99.90
14093;DHT22;7123;49.468;10.992;2022-11-15T02:45:41;9.00;99.90
14093;DHT22;7123;49.468;10.992;2022-11-15T02:48:11;8.90;99.90
14093;DHT22;7123;49.468;10.992;2022-11-15T02:50:38;8.90;99.90
14093;DHT22;7123;49.468;10.992;2022-11-15T02:53:05;9.00;99.90
14093;DHT22;7123;49.468;10.992;2022-11-15T02:55:36;8.90;99.90
14093;DHT22;7123;49.468;10.992;2022-11-15T02:58:19;8.90;99.90
14093;DHT22;7123;49.468;10.992;2022-11-15T03:01:00;8.90;99.90
14093;DHT22;7123;49.468;10.992;2022-11-15T03:03:42;8.90;99.90
14093;DHT22;7123;49.468;10.992;2022-11-15T03:09:32;8.80;99.90
14093;DHT22;7123;49.468;10.992;2022-11-15T03:15:05;8.80;99.90
14093;DHT22;7123;49.468;10.992;2022-11-15T03:17:36;8.80;99.90
14093;DHT22;7123;49.468;10.992;2022-11-15T03:20:06;8.80;99.90
14093;DHT22;7123;49.468;10.992;2022-11-15T03:22:37;8.80;99.90
14093;DHT22;7123;49.468;10.992;2022-11-15T03:25:07;8.80;99.90
14093;DHT22;7123;49.468;10.992;2022-11-15T03:27:43;8.80;99.90
14093;DHT22;7123;49.468;10.992;2022-11-15T03:30:13;8.80;99.90
14093;DHT22;7123;49.468;10.992;2022-11-15T03:32:49;8.90;99.90
14093;DHT22;7123;49.468;10.992;2022-11-15T03:35:22;8.80;99.90
14093;DHT22;7123;49.468;10.992;2022-11-15T03:38:45;8.80;99.90
14093;DHT22;7123;49.468;10.992;2022-11-15T03:41:00;8.80;99.90
14093;DHT22;7123;49.468;10.992;2022-11-15T03:43:40;8.80;99.90
14093;DHT22;7123;49.468;10.992;2022-11-15T03:46:20;8.80;99.90
14093;DHT22;7123;49.468;10.992;2022-11-15T03:48:53;8.90;99.90
14093;DHT22;7123;49.468;10.992;2022-11-15T03:51:21;8.80;99.90
14093;DHT22;7123;49.468;10.992;2022-11-15T03:53:48;8.80;99.90
14093;DHT22;7123;49.468;10.992;2022-11-15T03:56:14;8.80;99.90
14093;DHT22;7123;49.468;10.992;2022-11-15T03:58:41;8.80;99.90
14093;DHT22;7123;49.468;10.992;2022-11-15T04:01:08;8.80;99.90
14093;DHT22;7123;49.468;10.992;2022-11-15T04:03:35;8.80;99.90
14093;DHT22;7123;49.468;10.992;2022-11-15T04:06:01;8.70;99.90
14093;DHT22;7123;49.468;10.992;2022-11-15T04:08:28;8.80;99.90
14093;DHT22;7123;49.468;10.992;2022-11-15T04:10:55;8.80;99.90
14093;DHT22;7123;49.468;10.992;2022-11-15T04:13:21;8.80;99.90
14093;DHT22;7123;49.468;10.992;2022-11-15T04:15:48;8.80;99.90
14093;DHT22;7123;49.468;10.992;2022-11-15T04:18:15;8.80;99.90
14093;DHT22;7123;49.468;10.992;2022-11-15T04:20:41;8.80;99.90
14093;DHT22;7123;49.468;10.992;2022-11-15T04:23:37;8.80;99.90
14093;DHT22;7123;49.468;10.992;2022-11-15T04:26:21;8.70;99.90
14093;DHT22;7123;49.468;10.992;2022-11-15T04:28:48;8.80;99.90
14093;DHT22;7123;49.468;10.992;2022-11-15T04:31:34;8.70;99.90
14093;DHT22;7123;49.468;10.992;2022-11-15T04:34:00;8.60;99.90
14093;DHT22;7123;49.468;10.992;2022-11-15T04:36:27;8.70;99.90
14093;DHT22;7123;49.468;10.992;2022-11-15T04:39:13;8.70;99.90
14093;DHT22;7123;49.468;10.992;2022-11-15T04:41:39;8.70;99.90
14093;DHT22;7123;49.468;10.992;2022-11-15T04:44:06;8.70;99.90
14093;DHT22;7123;49.468;10.992;2022-11-15T04:46:33;8.60;99.90
14093;DHT22;7123;49.468;10.992;2022-11-15T04:48:59;8.60;99.90
14093;DHT22;7123;49.468;10.992;2022-11-15T04:51:26;8.60;99.90
14093;DHT22;7123;49.468;10.992;2022-11-15T04:53:53;8.50;99.90
14093;DHT22;7123;49.468;10.992;2022-11-15T04:56:19;8.50;99.90
14093;DHT22;7123;49.468;10.992;2022-11-15T04:58:49;8.50;99.90
14093;DHT22;7123;49.468;10.992;2022-11-15T05:01:16;8.50;99.90
14093;DHT22;7123;49.468;10.992;2022-11-15T05:03:44;8.50;99.90
14093;DHT22;7123;49.468;10.992;2022-11-15T05:06:29;8.50;99.90
14093;DHT22;7123;49.468;10.992;2022-11-15T05:08:56;8.50;99.90
14093;DHT22;7123;49.468;10.992;2022-11-15T05:11:23;8.40;99.90
14093;DHT22;7123;49.468;10.992;2022-11-15T05:13:50;8.50;99.90
14093;DHT22;7123;49.468;10.992;2022-11-15T05:16:17;8.50;99.90
14093;DHT22;7123;49.468;10.992;2022-11-15T05:18:44;8.40;99.90
14093;DHT22;7123;49.468;10.992;2022-11-15T05:21:12;8.40;99.90
14093;DHT22;7123;49.468;10.992;2022-11-15T05:23:40;8.50;99.90
14093;DHT22;7123;49.468;10.992;2022-11-15T05:26:08;8.50;99.90
14093;DHT22;7123;49.468;10.992;2022-11-15T05:28:35;8.40;99.90
14093;DHT22;7123;49.468;10.992;2022-11-15T05:31:09;8.50;99.90
14093;DHT22;7123;49.468;10.992;2022-11-15T05:33:39;8.50;99.90
14093;DHT22;7123;49.468;10.992;2022-11-15T05:36:43;8.40;99.90
14093;DHT22;7123;49.468;10.992;2022-11-15T05:39:12;8.50;99.90
14093;DHT22;7123;49.468;10.992;2022-11-15T05:41:43;8.50;99.90
14093;DHT22;7123;49.468;10.992;2022-11-15T05:44:12;8.50;99.90
14093;DHT22;7123;49.468;10.992;2022-11-15T05:46:41;8.50;99.90
14093;DHT22;7123;49.468;10.992;2022-11-15T05:49:12;8.50;99.90
14093;DHT22;7123;49.468;10.992;2022-11-15T05:51:40;8.50;99.90
14093;DHT22;7123;49.468;10.992;2022-11-15T05:54:07;8.50;99.90
14093;DHT22;7123;49.468;10.992;2022-11-15T05:56:34;8.60;99.90
14093;DHT22;7123;49.468;10.992;2022-11-15T05:59:01;8.50;99.90
14093;DHT22;7123;49.468;10.992;2022-11-15T06:01:28;8.50;99.90
14093;DHT22;7123;49.468;10.992;2022-11-15T06:03:55;8.50;99.90
14093;DHT22;7123;49.468;10.992;2022-11-15T06:06:22;8.40;99.90
14093;DHT22;7123;49.468;10.992;2022-11-15T06:08:49;8.40;99.90
14093;DHT22;7123;49.468;10.992;2022-11-15T06:11:15;8.40;99.90
14093;DHT22;7123;49.468;10.992;2022-11-15T06:13:42;8.40;99.90
14093;DHT22;7123;49.468;10.992;2022-11-15T06:16:09;8.30;99.90
14093;DHT22;7123;49.468;10.992;2022-11-15T06:18:36;8.40;99.90
14093;DHT22;7123;49.468;10.992;2022-11-15T06:21:04;8.30;99.90
14093;DHT22;7123;49.468;10.992;2022-11-15T06:23:32;8.30;99.90
14093;DHT22;7123;49.468;10.992;2022-11-15T06:26:00;8.30;99.90
14093;DHT22;7123;49.468;10.992;2022-11-15T06:28:32;8.30;99.90
14093;DHT22;7123;49.468;10.992;2022-11-15T06:31:03;8.30;99.90
14093;DHT22;7123;49.468;10.992;2022-11-15T06:33:30;8.30;99.90
14093;DHT22;7123;49.468;10.992;2022-11-15T06:36:01;8.30;99.90
14093;DHT22;7123;49.468;10.992;2022-11-15T06:38:28;8.30;99.90
14093;DHT22;7123;49.468;10.992;2022-11-15T06:40:54;8.30;99.90
14093;DHT22;7123;49.468;10.992;2022-11-15T06:43:21;8.30;99.90
14093;DHT22;7123;49.468;10.992;2022-11-15T06:45:48;8.30;99.90
14093;DHT22;7123;49.468;10.992;2022-11-15T06:48:14;8.30;99.90
14093;DHT22;7123;49.468;10.992;2022-11-15T06:50:41;8.30;99.90
14093;DHT22;7123;49.468;10.992;2022-11-15T06:53:08;8.30;99.90
14093;DHT22;7123;49.468;10.992;2022-11-15T06:55:34;8.30;99.90
14093;DHT22;7123;49.468;10.992;2022-11-15T06:58:01;8.30;99.90
14093;DHT22;7123;49.468;10.992;2022-11-15T07:00:28;8.30;99.90
14093;DHT22;7123;49.468;10.992;2022-11-15T07:02:54;8.30;99.90
14093;DHT22;7123;49.468;10.992;2022-11-15T07:05:21;8.30;99.90
14093;DHT22;7123;49.468;10.992;2022-11-15T07:07:52;8.20;99.90
14093;DHT22;7123;49.468;10.992;2022-11-15T07:10:20;8.20;99.90
14093;DHT22;7123;49.468;10.992;2022-11-15T07:12:48;8.20;99.90
14093;DHT22;7123;49.468;10.992;2022-11-15T07:15:16;8.20;99.90
14093;DHT22;7123;49.468;10.992;2022-11-15T07:17:42;8.20;99.90
14093;DHT22;7123;49.468;10.992;2022-11-15T07:20:10;8.20;99.90
14093;DHT22;7123;49.468;10.992;2022-11-15T07:22:37;8.20;99.90
14093;DHT22;7123;49.468;10.992;2022-11-15T07:25:04;8.30;99.90
14093;DHT22;7123;49.468;10.992;2022-11-15T07:27:31;8.30;99.90
14093;DHT22;7123;49.468;10.992;2022-11-15T07:29:57;8.30;99.90
14093;DHT22;7123;49.468;10.992;2022-11-15T07:32:24;8.40;99.90
14093;DHT22;7123;49.468;10.992;2022-11-15T07:34:51;8.40;99.90
14093;DHT22;7123;49.468;10.992;2022-11-15T07:37:18;8.40;99.90
14093;DHT22;7123;49.468;10.992;2022-11-15T07:39:45;8.40;99.90
14093;DHT22;7123;49.468;10.992;2022-11-15T07:42:12;8.40;99.90
14093;DHT22;7123;49.468;10.992;2022-11-15T07:44:57;8.40;99.90
14093;DHT22;7123;49.468;10.992;2022-11-15T07:47:24;8.50;99.90
14093;DHT22;7123;49.468;10.992;2022-11-15T07:49:51;8.50;99.90
14093;DHT22;7123;49.468;10.992;2022-11-15T07:52:18;8.50;99.90
14093;DHT22;7123;49.468;10.992;2022-11-15T07:54:45;8.50;99.90
14093;DHT22;7123;49.468;10.992;2022-11-15T07:57:11;8.50;99.90
14093;DHT22;7123;49.468;10.992;2022-11-15T07:59:38;8.50;99.90
14093;DHT22;7123;49.468;10.992;2022-11-15T08:02:05;8.60;99.90
14093;DHT22;7123;49.468;10.992;2022-11-15T08:04:32;8.60;99.90
14093;DHT22;7123;49.468;10.992;2022-11-15T08:06:59;8.70;99.90
14093;DHT22;7123;49.468;10.992;2022-11-15T08:09:25;8.70;99.90
14093;DHT22;7123;49.468;10.992;2022-11-15T08:11:52;8.70;99.90
14093;DHT22;7123;49.468;10.992;2022-11-15T08:14:19;8.70;99.90
14093;DHT22;7123;49.468;10.992;2022-11-15T08:16:47;8.80;99.90
14093;DHT22;7123;49.468;10.992;2022-11-15T08:19:15;8.80;99.90
14093;DHT22;7123;49.468;10.992;2022-11-15T08:21:41;8.90;99.90
14093;DHT22;7123;49.468;10.992;2022-11-15T08:24:09;8.90;99.90
14093;DHT22;7123;49.468;10.992;2022-11-15T08:26:36;8.90;99.90
14093;DHT22;7123;49.468;10.992;2022-11-15T08:29:04;9.00;99.90
14093;DHT22;7123;49.468;10.992;2022-11-15T08:31:30;9.00;99.90
14093;DHT22;7123;49.468;10.992;2022-11-15T08:33:57;9.10;99.90
14093;DHT22;7123;49.468;10.992;2022-11-15T08:36:24;9.10;99.90
14093;DHT22;7123;49.468;10.992;2022-11-15T08:38:50;9.10;99.90
14093;DHT22;7123;49.468;10.992;2022-11-15T08:41:40;9.10;99.90
14093;DHT22;7123;49.468;10.992;2022-11-15T08:44:07;9.20;99.90
14093;DHT22;7123;49.468;10.992;2022-11-15T08:46:34;9.20;99.90
14093;DHT22;7123;49.468;10.992;2022-11-15T08:49:00;9.20;99.90
14093;DHT22;7123;49.468;10.992;2022-11-15T08:51:27;9.20;99.90
14093;DHT22;7123;49.468;10.992;2022-11-15T08:53:54;9.30;99.90
14093;DHT22;7123;49.468;10.992;2022-11-15T08:56:20;9.30;99.90
14093;DHT22;7123;49.468;10.992;2022-11-15T08:58:47;9.40;99.90
14093;DHT22;7123;49.468;10.992;2022-11-15T09:01:19;9.40;99.90
14093;DHT22;7123;49.468;10.992;2022-11-15T09:03:46;9.40;99.90
14093;DHT22;7123;49.468;10.992;2022-11-15T09:06:13;9.50;99.90
14093;DHT22;7123;49.468;10.992;2022-11-15T09:08:40;9.50;99.90
14093;DHT22;7123;49.468;10.992;2022-11-15T09:11:13;9.50;99.90
14093;DHT22;7123;49.468;10.992;2022-11-15T09:13:41;9.60;99.90
14093;DHT22;7123;49.468;10.992;2022-11-15T09:16:07;9.60;99.90
14093;DHT22;7123;49.468;10.992;2022-11-15T09:18:34;9.70;99.90
14093;DHT22;7123;49.468;10.992;2022-11-15T09:21:01;9.70;99.90
14093;DHT22;7123;49.468;10.992;2022-11-15T09:23:29;9.80;99.90
14093;DHT22;7123;49.468;10.992;2022-11-15T09:26:00;9.80;99.90
14093;DHT22;7123;49.468;10.992;2022-11-15T09:28:28;9.90;99.90
14093;DHT22;7123;49.468;10.992;2022-11-15T09:31:03;9.90;99.90
14093;DHT22;7123;49.468;10.992;2022-11-15T09:33:30;9.90;99.90
14093;DHT22;7123;49.468;10.992;2022-11-15T09:36:05;9.90;99.90
14093;DHT22;7123;49.468;10.992;2022-11-15T09:38:33;9.90;99.90
14093;DHT22;7123;49.468;10.992;2022-11-15T09:49:20;10.00;99.90
14093;DHT22;7123;49.468;10.992;2022-11-15T09:51:49;10.10;99.90
14093;DHT22;7123;49.468;10.992;2022-11-15T09:54:26;10.10;99.90
14093;DHT22;7123;49.468;10.992;2022-11-15T10:00:18;10.20;99.90
14093;DHT22;7123;49.468;10.992;2022-11-15T10:03:44;10.20;99.90
14093;DHT22;7123;49.468;10.992;2022-11-15T10:06:40;10.30;99.90
14093;DHT22;7123;49.468;10.992;2022-11-15T10:09:19;10.30;99.90
14093;DHT22;7123;49.468;10.992;2022-11-15T10:11:50;10.40;99.90
14093;DHT22;7123;49.468;10.992;2022-11-15T10:14:21;10.40;99.90
14093;DHT22;7123;49.468;10.992;2022-11-15T10:22:38;10.50;99.90
14093;DHT22;7123;49.468;10.992;2022-11-15T10:27:36;10.60;99.90
14093;DHT22;7123;49.468;10.992;2022-11-15T10:30:06;10.70;99.90
14093;DHT22;7123;49.468;10.992;2022-11-15T10:32:36;10.70;99.90
14093;DHT22;7123;49.468;10.992;2022-11-15T10:35:28;10.70;99.90
14093;DHT22;7123;49.468;10.992;2022-11-15T10:38:14;10.80;99.90
14093;DHT22;7123;49.468;10.992;2022-11-15T10:40:41;10.80;99.90
14093;DHT22;7123;49.468;10.992;2022-11-15T10:45:37;10.90;99.90
14093;DHT22;7123;49.468;10.992;2022-11-15T10:50:45;10.90;99.90
14093;DHT22;7123;49.468;10.992;2022-11-15T10:53:36;11.10;99.90
14093;DHT22;7123;49.468;10.992;2022-11-15T10:56:08;11.20;99.90
14093;DHT22;7123;49.468;10.992;2022-11-15T10:58:44;11.20;99.90
14093;DHT22;7123;49.468;10.992;2022-11-15T11:04:01;11.30;99.90
14093;DHT22;7123;49.468;10.992;2022-11-15T11:06:28;11.40;99.90
14093;DHT22;7123;49.468;10.992;2022-11-15T11:08:59;11.30;99.90
14093;DHT22;7123;49.468;10.992;2022-11-15T11:11:45;11.40;99.90
14093;DHT22;7123;49.468;10.992;2022-11-15T11:14:33;11.40;99.90
14093;DHT22;7123;49.468;10.992;2022-11-15T11:17:11;11.50;99.90
14093;DHT22;7123;49.468;10.992;2022-11-15T11:23:02;11.60;99.90
14093;DHT22;7123;49.468;10.992;2022-11-15T11:25:36;11.60;99.90
14093;DHT22;7123;49.468;10.992;2022-11-15T11:28:22;11.60;99.90
14093;DHT22;7123;49.468;10.992;2022-11-15T11:36:03;11.80;99.90
14093;DHT22;7123;49.468;10.992;2022-11-15T11:42:13;11.90;99.90
14093;DHT22;7123;49.468;10.992;2022-11-15T11:44:49;12.00;99.90
14093;DHT22;7123;49.468;10.992;2022-11-15T11:47:28;12.00;99.90
14093;DHT22;7123;49.468;10.992;2022-11-15T11:50:02;12.00;99.90
14093;DHT22;7123;49.468;10.992;2022-11-15T11:52:55;12.10;99.90
14093;DHT22;7123;49.468;10.992;2022-11-15T11:55:45;12.10;99.90
14093;DHT22;7123;49.468;10.992;2022-11-15T12:00:56;12.20;99.90
14093;DHT22;7123;49.468;10.992;2022-11-15T12:03:47;12.20;99.90
14093;DHT22;7123;49.468;10.992;2022-11-15T12:06:35;12.30;99.90
14093;DHT22;7123;49.468;10.992;2022-11-15T12:09:17;12.30;99.90
14093;DHT22;7123;49.468;10.992;2022-11-15T12:15:03;12.30;99.90
14093;DHT22;7123;49.468;10.992;2022-11-15T12:17:32;12.40;99.90
14093;DHT22;7123;49.468;10.992;2022-11-15T12:20:00;12.40;99.90
14093;DHT22;7123;49.468;10.992;2022-11-15T12:22:47;12.40;99.90
14093;DHT22;7123;49.468;10.992;2022-11-15T12:28:14;12.50;99.90
14093;DHT22;7123;49.468;10.992;2022-11-15T12:30:50;12.60;99.90
14093;DHT22;7123;49.468;10.992;2022-11-15T12:33:40;12.50;99.90
14093;DHT22;7123;49.468;10.992;2022-11-15T12:39:00;12.60;99.90
14093;DHT22;7123;49.468;10.992;2022-11-15T12:41:32;12.60;99.90
14093;DHT22;7123;49.468;10.992;2022-11-15T12:43:59;12.70;99.90
14093;DHT22;7123;49.468;10.992;2022-11-15T12:59:50;12.70;99.90
14093;DHT22;7123;49.468;10.992;2022-11-15T13:02:24;12.70;99.90
14093;DHT22;7123;49.468;10.992;2022-11-15T13:30:52;13.00;99.90
14093;DHT22;7123;49.468;10.992;2022-11-15T13:33:37;13.00;99.90
14093;DHT22;7123;49.468;10.992;2022-11-15T13:36:07;13.00;99.90
14093;DHT22;7123;49.468;10.992;2022-11-15T13:38:37;13.10;99.90
14093;DHT22;7123;49.468;10.992;2022-11-15T13:41:20;13.10;99.90
14093;DHT22;7123;49.468;10.992;2022-11-15T13:43:51;13.20;99.90
14093;DHT22;7123;49.468;10.992;2022-11-15T13:46:29;13.30;99.90
14093;DHT22;7123;49.468;10.992;2022-11-15T13:56:42;13.50;99.90
14093;DHT22;7123;49.468;10.992;2022-11-15T13:59:17;13.50;99.90
14093;DHT22;7123;49.468;10.992;2022-11-15T14:01:45;13.50;99.90
14093;DHT22;7123;49.468;10.992;2022-11-15T14:04:17;13.40;99.90
14093;DHT22;7123;49.468;10.992;2022-11-15T14:06:50;13.30;99.90
14093;DHT22;7123;49.468;10.992;2022-11-15T14:09:40;13.30;99.90
14093;DHT22;7123;49.468;10.992;2022-11-15T14:12:33;13.30;99.90
14093;DHT22;7123;49.468;10.992;2022-11-15T14:15:28;13.40;99.90
14093;DHT22;7123;49.468;10.992;2022-11-15T14:17:55;13.40;99.90
14093;DHT22;7123;49.468;10.992;2022-11-15T14:22:56;13.60;99.90
14093;DHT22;7123;49.468;10.992;2022-11-15T14:25:28;13.60;99.90
14093;DHT22;7123;49.468;10.992;2022-11-15T14:30:43;13.60;99.90
14093;DHT22;7123;49.468;10.992;2022-11-15T14:33:34;13.60;99.90
14093;DHT22;7123;49.468;10.992;2022-11-15T14:36:16;13.50;99.90
14093;DHT22;7123;49.468;10.992;2022-11-15T14:38:43;13.30;99.90
14093;DHT22;7123;49.468;10.992;2022-11-15T14:41:24;13.20;99.90
14093;DHT22;7123;49.468;10.992;2022-11-15T14:43:52;13.10;99.90
14093;DHT22;7123;49.468;10.992;2022-11-15T14:46:19;13.00;99.90
14093;DHT22;7123;49.468;10.992;2022-11-15T14:48:46;13.00;99.90
14093;DHT22;7123;49.468;10.992;2022-11-15T14:51:15;12.90;99.90
14093;DHT22;7123;49.468;10.992;2022-11-15T14:53:45;12.80;99.90
14093;DHT22;7123;49.468;10.992;2022-11-15T14:56:12;12.90;99.90
14093;DHT22;7123;49.468;10.992;2022-11-15T14:58:39;12.80;99.90
14093;DHT22;7123;49.468;10.992;2022-11-15T15:01:23;12.80;99.90
14093;DHT22;7123;49.468;10.992;2022-11-15T15:03:51;12.80;99.90
14093;DHT22;7123;49.468;10.992;2022-11-15T15:06:18;12.70;99.90
14093;DHT22;7123;49.468;10.992;2022-11-15T15:08:46;12.70;99.90
14093;DHT22;7123;49.468;10.992;2022-11-15T15:11:22;12.60;99.90
14093;DHT22;7123;49.468;10.992;2022-11-15T15:13:50;12.60;99.90
14093;DHT22;7123;49.468;10.992;2022-11-15T15:16:19;12.60;99.90
14093;DHT22;7123;49.468;10.992;2022-11-15T15:18:46;12.60;99.90
14093;DHT22;7123;49.468;10.992;2022-11-15T15:21:33;12.50;99.90
14093;DHT22;7123;49.468;10.992;2022-11-15T15:24:03;12.50;99.90
14093;DHT22;7123;49.468;10.992;2022-11-15T15:26:30;12.40;99.90
14093;DHT22;7123;49.468;10.992;2022-11-15T15:29:00;12.40;99.90
14093;DHT22;7123;49.468;10.992;2022-11-15T15:31:26;12.40;99.90
14093;DHT22;7123;49.468;10.992;2022-11-15T15:33:53;12.40;99.90
14093;DHT22;7123;49.468;10.992;2022-11-15T15:36:20;12.30;99.90
14093;DHT22;7123;49.468;10.992;2022-11-15T15:38:47;12.30;99.90
14093;DHT22;7123;49.468;10.992;2022-11-15T15:41:15;12.30;99.90
14093;DHT22;7123;49.468;10.992;2022-11-15T15:43:42;12.30;99.90
14093;DHT22;7123;49.468;10.992;2022-11-15T15:46:14;12.30;99.90
14093;DHT22;7123;49.468;10.992;2022-11-15T15:48:41;12.30;99.90
14093;DHT22;7123;49.468;10.992;2022-11-15T15:51:08;12.30;99.90
14093;DHT22;7123;49.468;10.992;2022-11-15T15:53:46;12.30;99.90
14093;DHT22;7123;49.468;10.992;2022-11-15T15:56:12;12.30;99.90
14093;DHT22;7123;49.468;10.992;2022-11-15T15:58:39;12.30;99.90
14093;DHT22;7123;49.468;10.992;2022-11-15T16:01:06;12.20;99.90
14093;DHT22;7123;49.468;10.992;2022-11-15T16:03:32;12.20;99.90
14093;DHT22;7123;49.468;10.992;2022-11-15T16:05:59;12.20;99.90
14093;DHT22;7123;49.468;10.992;2022-11-15T16:08:27;12.20;99.90
14093;DHT22;7123;49.468;10.992;2022-11-15T16:11:13;12.20;99.90
14093;DHT22;7123;49.468;10.992;2022-11-15T16:13:41;12.20;99.90
14093;DHT22;7123;49.468;10.992;2022-11-15T16:16:09;12.20;99.90
14093;DHT22;7123;49.468;10.992;2022-11-15T16:18:39;12.20;99.90
14093;DHT22;7123;49.468;10.992;2022-11-15T16:21:07;12.30;99.90
14093;DHT22;7123;49.468;10.992;2022-11-15T16:23:34;12.30;99.90
14093;DHT22;7123;49.468;10.992;2022-11-15T16:26:01;12.20;99.90
14093;DHT22;7123;49.468;10.992;2022-11-15T16:28:31;12.20;99.90
14093;DHT22;7123;49.468;10.992;2022-11-15T16:31:04;12.20;99.90
14093;DHT22;7123;49.468;10.992;2022-11-15T16:33:32;12.20;99.90
14093;DHT22;7123;49.468;10.992;2022-11-15T16:36:00;12.20;99.90
14093;DHT22;7123;49.468;10.992;2022-11-15T16:38:27;12.20;99.90
14093;DHT22;7123;49.468;10.992;2022-11-15T16:40:53;12.20;99.90
14093;DHT22;7123;49.468;10.992;2022-11-15T16:43:20;12.10;99.90
14093;DHT22;7123;49.468;10.992;2022-11-15T16:45:48;12.10;99.90
14093;DHT22;7123;49.468;10.992;2022-11-15T16:48:26;12.10;99.90
14093;DHT22;7123;49.468;10.992;2022-11-15T16:50:55;12.10;99.90
14093;DHT22;7123;49.468;10.992;2022-11-15T16:53:23;12.10;99.90
14093;DHT22;7123;49.468;10.992;2022-11-15T16:55:50;12.10;99.90
14093;DHT22;7123;49.468;10.992;2022-11-15T16:58:17;12.10;99.90
14093;DHT22;7123;49.468;10.992;2022-11-15T17:00:44;12.10;99.90
14093;DHT22;7123;49.468;10.992;2022-11-15T17:03:11;12.10;99.90
14093;DHT22;7123;49.468;10.992;2022-11-15T17:05:37;12.10;99.90
14093;DHT22;7123;49.468;10.992;2022-11-15T17:08:04;12.00;99.90
14093;DHT22;7123;49.468;10.992;2022-11-15T17:10:31;12.00;99.90
14093;DHT22;7123;49.468;10.992;2022-11-15T17:12:58;11.90;99.90
14093;DHT22;7123;49.468;10.992;2022-11-15T17:15:25;11.90;99.90
14093;DHT22;7123;49.468;10.992;2022-11-15T17:17:53;11.90;99.90
14093;DHT22;7123;49.468;10.992;2022-11-15T17:20:22;11.90;99.90
14093;DHT22;7123;49.468;10.992;2022-11-15T17:22:49;11.90;99.90
14093;DHT22;7123;49.468;10.992;2022-11-15T17:25:16;11.90;99.90
14093;DHT22;7123;49.468;10.992;2022-11-15T17:27:43;11.80;99.90
14093;DHT22;7123;49.468;10.992;2022-11-15T17:30:12;11.80;99.90
14093;DHT22;7123;49.468;10.992;2022-11-15T17:32:41;11.80;99.90
14093;DHT22;7123;49.468;10.992;2022-11-15T17:35:10;11.80;99.90
14093;DHT22;7123;49.468;10.992;2022-11-15T17:37:41;11.70;99.90
14093;DHT22;7123;49.468;10.992;2022-11-15T17:40:09;11.80;99.90
14093;DHT22;7123;49.468;10.992;2022-11-15T17:42:36;11.80;99.90
14093;DHT22;7123;49.468;10.992;2022-11-15T17:45:06;11.80;99.90
14093;DHT22;7123;49.468;10.992;2022-11-15T17:47:36;11.70;99.90
14093;DHT22;7123;49.468;10.992;2022-11-15T17:50:03;11.70;99.90
14093;DHT22;7123;49.468;10.992;2022-11-15T17:52:30;11.70;99.90
14093;DHT22;7123;49.468;10.992;2022-11-15T17:54:57;11.70;99.90
14093;DHT22;7123;49.468;10.992;2022-11-15T17:57:24;12.00;99.90
14093;DHT22;7123;49.468;10.992;2022-11-15T17:59:50;11.60;99.90
14093;DHT22;7123;49.468;10.992;2022-11-15T18:02:17;11.70;99.90
14093;DHT22;7123;49.468;10.992;2022-11-15T18:04:45;11.70;99.90
14093;DHT22;7123;49.468;10.992;2022-11-15T18:07:11;11.70;99.90
14093;DHT22;7123;49.468;10.992;2022-11-15T18:09:39;11.70;99.90